createdAt,value
2023-07-15T00:01:08.163Z,19.13
2023-07-15T00:03:35.892Z,19.15
2023-07-15T00:06:03.156Z,19.17
2023-07-15T00:08:32.526Z,19.13
2023-07-15T00:10:59.323Z,19.13
2023-07-15T00:13:26.026Z,19.17
2023-07-15T00:15:54.573Z,19.15
2023-07-15T00:18:22.411Z,19.17
2023-07-15T00:20:49.191Z,19.14
2023-07-15T00:23:24.429Z,19.10
2023-07-15T00:25:55.098Z,19.11
2023-07-15T00:28:22.258Z,19.13
2023-07-15T00:30:53.408Z,19.14
2023-07-15T00:33:21.065Z,19.10
2023-07-15T00:35:48.363Z,19.11
2023-07-15T00:38:15.126Z,19.07
2023-07-15T00:40:48.403Z,19.06
2023-07-15T00:43:53.919Z,19.04
2023-07-15T00:46:20.818Z,19.02
2023-07-15T00:48:54.062Z,18.97
2023-07-15T00:51:21.003Z,18.99
2023-07-15T00:53:48.036Z,18.97
2023-07-15T00:56:15.096Z,18.93
2023-07-15T00:58:41.890Z,18.93
2023-07-15T01:01:12.499Z,18.90
2023-07-15T01:03:41.424Z,18.90
2023-07-15T01:06:08.608Z,18.90
2023-07-15T01:08:35.424Z,18.89
2023-07-15T01:11:02.171Z,18.90
2023-07-15T01:13:28.874Z,18.86
2023-07-15T01:15:55.615Z,18.86
2023-07-15T01:18:22.365Z,18.85
2023-07-15T01:20:49.077Z,18.83
2023-07-15T01:23:15.768Z,18.83
2023-07-15T01:25:42.692Z,18.89
2023-07-15T01:28:09.443Z,18.87
2023-07-15T01:30:36.385Z,18.89
2023-07-15T01:33:03.171Z,18.87
2023-07-15T01:35:29.909Z,18.89
2023-07-15T01:37:56.622Z,18.93
2023-07-15T01:40:23.983Z,18.94
2023-07-15T01:42:50.687Z,18.96
2023-07-15T01:45:17.448Z,18.93
2023-07-15T01:47:44.292Z,18.93
2023-07-15T01:50:11.038Z,18.93
2023-07-15T01:52:37.732Z,18.96
2023-07-15T01:55:04.739Z,18.93
2023-07-15T01:57:31.991Z,18.92
2023-07-15T01:59:58.990Z,18.92
2023-07-15T02:02:25.934Z,18.90
2023-07-15T02:04:52.691Z,18.90
2023-07-15T02:07:19.366Z,18.85
2023-07-15T02:09:46.126Z,18.82
2023-07-15T02:12:12.952Z,18.83
2023-07-15T02:14:39.648Z,18.83
2023-07-15T02:17:07.109Z,18.85
2023-07-15T02:19:33.878Z,18.82
2023-07-15T02:22:00.977Z,18.75
2023-07-15T02:24:27.835Z,18.73
2023-07-15T02:26:54.563Z,18.70
2023-07-15T02:29:21.295Z,18.70
2023-07-15T02:31:48.011Z,18.67
2023-07-15T02:34:14.818Z,18.65
2023-07-15T02:36:41.547Z,18.66
2023-07-15T02:39:09.689Z,18.62
2023-07-15T02:41:36.458Z,18.60
2023-07-15T02:44:03.127Z,18.52
2023-07-15T02:46:29.913Z,18.48
2023-07-15T02:48:56.613Z,18.52
2023-07-15T02:51:25.233Z,18.49
2023-07-15T02:53:52.433Z,18.49
2023-07-15T02:56:19.144Z,18.45
2023-07-15T02:58:45.834Z,18.42
2023-07-15T03:01:12.741Z,18.41
2023-07-15T03:03:39.492Z,18.39
2023-07-15T03:06:06.168Z,18.38
2023-07-15T03:08:32.910Z,18.34
2023-07-15T03:10:59.576Z,18.32
2023-07-15T03:13:26.897Z,18.29
2023-07-15T03:15:54.020Z,18.28
2023-07-15T03:18:26.425Z,18.28
2023-07-15T03:20:53.927Z,18.27
2023-07-15T03:23:20.618Z,18.31
2023-07-15T03:25:47.351Z,18.35
2023-07-15T03:28:14.101Z,18.34
2023-07-15T03:30:40.852Z,18.35
2023-07-15T03:33:08.209Z,18.35
2023-07-15T03:35:35.022Z,18.32
2023-07-15T03:38:01.745Z,18.38
2023-07-15T03:40:28.418Z,18.42
2023-07-15T03:42:55.134Z,18.49
2023-07-15T03:45:21.844Z,18.49
2023-07-15T03:47:48.657Z,18.53
2023-07-15T03:50:15.380Z,18.58
2023-07-15T03:52:43.053Z,18.63
2023-07-15T03:55:09.920Z,18.65
2023-07-15T03:57:39.332Z,18.70
2023-07-15T04:00:18.290Z,18.77
2023-07-15T04:02:50.996Z,18.77
2023-07-15T04:05:18.002Z,18.77
2023-07-15T04:07:45.436Z,18.86
2023-07-15T04:10:12.670Z,18.92
2023-07-15T04:12:39.987Z,18.94
2023-07-15T04:15:07.389Z,18.94
2023-07-15T04:17:34.190Z,19.03
2023-07-15T04:20:00.974Z,19.10
2023-07-15T04:22:27.826Z,19.17
2023-07-15T04:24:54.603Z,19.24
2023-07-15T04:27:21.279Z,19.30
2023-07-15T04:29:48.015Z,19.36
2023-07-15T04:32:14.805Z,19.47
2023-07-15T04:34:41.466Z,19.54
2023-07-15T04:37:08.163Z,19.63
2023-07-15T04:39:34.876Z,19.72
2023-07-15T04:42:01.604Z,19.76
2023-07-15T04:44:28.311Z,19.82
2023-07-15T04:46:55.058Z,19.87
2023-07-15T04:49:21.769Z,19.92
2023-07-15T04:51:48.542Z,19.93
2023-07-15T04:54:15.254Z,20.00
2023-07-15T04:56:42.009Z,20.09
2023-07-15T04:59:09.154Z,20.13
2023-07-15T05:01:36.030Z,20.23
2023-07-15T05:04:03.399Z,20.30
2023-07-15T05:06:30.321Z,20.38
2023-07-15T05:08:57.259Z,20.47
2023-07-15T05:11:26.109Z,20.58
2023-07-15T05:13:52.870Z,20.67
2023-07-15T05:16:20.851Z,20.75
2023-07-15T05:18:47.455Z,20.84
2023-07-15T05:21:14.459Z,20.91
2023-07-15T05:23:41.349Z,20.99
2023-07-15T05:26:08.071Z,21.12
2023-07-15T05:28:34.845Z,21.22
2023-07-15T05:31:01.630Z,21.30
2023-07-15T05:33:28.495Z,21.42
2023-07-15T05:35:55.993Z,21.44
2023-07-15T05:38:26.752Z,21.58
2023-07-15T05:40:56.636Z,21.70
2023-07-15T05:43:23.326Z,21.77
2023-07-15T05:45:50.086Z,21.90
2023-07-15T05:48:16.999Z,22.01
2023-07-15T05:50:43.774Z,22.13
2023-07-15T05:53:11.312Z,22.22
2023-07-15T05:55:37.981Z,22.33
2023-07-15T05:58:11.048Z,22.48
2023-07-15T06:00:39.771Z,22.67
2023-07-15T06:03:06.747Z,22.88
2023-07-15T06:05:33.653Z,23.08
2023-07-15T06:08:00.371Z,23.34
2023-07-15T06:10:27.099Z,23.51
2023-07-15T06:12:53.874Z,23.69
2023-07-15T06:15:20.596Z,23.89
2023-07-15T06:17:47.335Z,24.06
2023-07-15T06:20:14.132Z,24.25
2023-07-15T06:22:40.895Z,24.40
2023-07-15T06:25:07.934Z,24.59
2023-07-15T06:27:34.626Z,24.76
2023-07-15T06:30:01.381Z,24.89
2023-07-15T06:32:28.154Z,25.02
2023-07-15T06:34:54.892Z,25.16
2023-07-15T06:37:21.904Z,25.28
2023-07-15T06:39:48.648Z,25.36
2023-07-15T06:42:15.382Z,25.38
2023-07-15T06:44:44.354Z,25.37
2023-07-15T06:47:11.507Z,25.47
2023-07-15T06:49:38.245Z,25.50
2023-07-15T06:52:07.813Z,25.53
2023-07-15T06:54:35.998Z,25.58
2023-07-15T06:57:02.703Z,25.70
2023-07-15T06:59:29.444Z,25.78
2023-07-15T07:01:56.113Z,25.80
2023-07-15T07:04:22.832Z,25.80
2023-07-15T07:06:49.624Z,25.88
2023-07-15T07:09:16.325Z,25.96
2023-07-15T07:11:43.004Z,25.99
2023-07-15T07:14:10.519Z,26.03
2023-07-15T07:16:37.269Z,26.11
2023-07-15T07:19:04.090Z,26.12
2023-07-15T07:21:30.943Z,26.15
2023-07-15T07:23:57.669Z,26.18
2023-07-15T07:26:24.572Z,26.23
2023-07-15T07:28:51.324Z,26.26
2023-07-15T07:31:19.828Z,26.32
2023-07-15T07:33:46.970Z,26.39
2023-07-15T07:36:13.768Z,26.44
2023-07-15T07:38:40.536Z,26.53
2023-07-15T07:41:14.166Z,26.57
2023-07-15T07:43:41.302Z,26.59
2023-07-15T07:46:10.111Z,26.73
2023-07-15T07:48:37.097Z,26.87
2023-07-15T07:51:04.081Z,26.91
2023-07-15T07:53:30.970Z,26.90
2023-07-15T07:55:58.020Z,27.05
2023-07-15T07:58:24.772Z,27.24
2023-07-15T08:00:51.511Z,27.50
2023-07-15T08:03:18.911Z,27.63
2023-07-15T08:05:46.765Z,27.77
2023-07-15T08:08:13.637Z,27.91
2023-07-15T08:10:43.612Z,28.05
2023-07-15T08:13:10.355Z,28.22
2023-07-15T08:15:37.825Z,28.25
2023-07-15T08:18:04.746Z,28.24
2023-07-15T08:20:32.206Z,28.27
2023-07-15T08:22:59.902Z,28.17
2023-07-15T08:25:26.968Z,28.17
2023-07-15T08:27:54.713Z,28.15
2023-07-15T08:30:22.019Z,28.22
2023-07-15T08:32:48.810Z,28.24
2023-07-15T08:35:15.807Z,28.29
2023-07-15T08:37:43.548Z,28.39
2023-07-15T08:40:14.015Z,28.41
2023-07-15T08:42:40.838Z,28.60
2023-07-15T08:45:08.060Z,28.86
2023-07-15T08:47:35.112Z,29.07
2023-07-15T08:50:04.070Z,29.08
2023-07-15T08:52:30.993Z,29.13
2023-07-15T08:54:57.761Z,29.38
2023-07-15T08:57:24.518Z,29.59
2023-07-15T08:59:54.111Z,29.72
2023-07-15T09:02:21.166Z,29.76
2023-07-15T09:04:48.077Z,29.85
2023-07-15T09:07:14.894Z,29.92
2023-07-15T09:09:41.653Z,30.12
2023-07-15T09:12:12.159Z,30.02
2023-07-15T09:14:52.918Z,30.08
2023-07-15T09:17:26.094Z,30.14
2023-07-15T09:19:53.382Z,30.10
2023-07-15T09:22:20.364Z,30.16
2023-07-15T09:24:47.115Z,30.19
2023-07-15T09:27:13.844Z,30.05
2023-07-15T09:29:40.519Z,29.96
2023-07-15T09:32:08.913Z,29.88
2023-07-15T09:34:42.034Z,29.74
2023-07-15T09:37:09.057Z,29.45
2023-07-15T09:39:35.848Z,29.07
2023-07-15T09:42:03.955Z,28.70
2023-07-15T09:44:45.181Z,28.44
2023-07-15T09:47:11.889Z,28.21
2023-07-15T09:49:38.612Z,28.05
2023-07-15T09:52:06.349Z,27.87
2023-07-15T09:54:34.506Z,27.76
2023-07-15T09:57:05.573Z,27.64
2023-07-15T09:59:47.591Z,27.60
2023-07-15T10:02:20.337Z,27.63
2023-07-15T10:04:47.232Z,27.69
2023-07-15T10:07:14.141Z,27.67
2023-07-15T10:09:40.845Z,27.76
2023-07-15T10:12:08.507Z,27.80
2023-07-15T10:14:35.265Z,27.70
2023-07-15T10:17:12.132Z,27.56
2023-07-15T10:19:47.675Z,27.43
2023-07-15T10:22:15.162Z,27.43
2023-07-15T10:24:43.467Z,27.38
2023-07-15T10:27:11.887Z,27.32
2023-07-15T10:29:40.414Z,27.28
2023-07-15T10:32:15.820Z,27.26
2023-07-15T10:34:49.537Z,27.43
2023-07-15T10:37:16.949Z,27.59
2023-07-15T10:39:44.023Z,27.80
2023-07-15T10:42:12.507Z,28.21
2023-07-15T10:44:45.509Z,28.45
2023-07-15T10:47:13.545Z,28.42
2023-07-15T10:49:40.612Z,28.38
2023-07-15T10:52:07.744Z,28.34
2023-07-15T10:54:37.535Z,28.18
2023-07-15T10:57:15.660Z,28.05
2023-07-15T10:59:46.194Z,28.08
2023-07-15T11:02:13.214Z,28.12
2023-07-15T11:04:40.625Z,28.17
2023-07-15T11:07:08.987Z,28.03
2023-07-15T11:09:42.019Z,27.89
2023-07-15T11:12:10.103Z,27.64
2023-07-15T11:14:39.369Z,27.53
2023-07-15T11:17:08.494Z,27.42
2023-07-15T11:19:35.267Z,27.28
2023-07-15T11:22:06.317Z,27.09
2023-07-15T11:24:33.005Z,26.98
2023-07-15T11:27:02.839Z,26.90
2023-07-15T11:29:29.667Z,26.86
2023-07-15T11:31:57.412Z,26.84
2023-07-15T11:34:27.872Z,26.84
2023-07-15T11:36:55.181Z,26.84
2023-07-15T11:39:22.100Z,27.09
2023-07-15T11:41:50.475Z,27.49
2023-07-15T11:44:20.228Z,27.64
2023-07-15T11:46:47.227Z,27.55
2023-07-15T11:49:19.660Z,27.41
2023-07-15T11:51:46.346Z,27.25
2023-07-15T11:54:13.811Z,27.05
2023-07-15T11:56:43.925Z,26.92
2023-07-15T11:59:12.305Z,26.84
2023-07-15T12:01:40.766Z,26.67
2023-07-15T12:04:17.819Z,26.56
2023-07-15T12:06:51.804Z,26.44
2023-07-15T12:09:18.673Z,26.36
2023-07-15T12:11:46.320Z,26.35
2023-07-15T12:14:14.365Z,26.40
2023-07-15T12:16:41.177Z,26.53
2023-07-15T12:19:12.528Z,26.60
2023-07-15T12:21:40.511Z,26.71
2023-07-15T12:24:07.481Z,26.84
2023-07-15T12:26:34.256Z,27.05
2023-07-15T12:29:01.149Z,27.29
2023-07-15T12:31:27.955Z,27.42
2023-07-15T12:33:54.774Z,27.47
2023-07-15T12:36:21.522Z,27.45
2023-07-15T12:38:48.448Z,27.42
2023-07-15T12:41:15.411Z,27.34
2023-07-15T12:43:42.205Z,27.21
2023-07-15T12:46:08.978Z,27.07
2023-07-15T12:48:35.739Z,27.01
2023-07-15T12:51:02.457Z,26.90
2023-07-15T12:53:29.179Z,26.81
2023-07-15T12:55:55.986Z,26.77
2023-07-15T12:58:23.165Z,26.65
2023-07-15T13:00:51.045Z,26.61
2023-07-15T13:03:18.140Z,26.56
2023-07-15T13:05:45.046Z,26.54
2023-07-15T13:08:15.248Z,26.51
2023-07-15T13:10:43.221Z,26.53
2023-07-15T13:13:10.104Z,26.54
2023-07-15T13:15:36.887Z,26.60
2023-07-15T13:18:03.801Z,26.63
2023-07-15T13:20:30.607Z,26.70
2023-07-15T13:22:57.398Z,26.71
2023-07-15T13:25:24.187Z,26.74
2023-07-15T13:27:51.140Z,26.73
2023-07-15T13:30:17.837Z,26.74
2023-07-15T13:32:44.551Z,26.78
2023-07-15T13:35:11.326Z,26.80
2023-07-15T13:37:37.980Z,26.80
2023-07-15T13:40:07.033Z,26.80
2023-07-15T13:42:33.830Z,26.74
2023-07-15T13:45:00.629Z,26.68
2023-07-15T13:47:27.359Z,26.64
2023-07-15T13:49:54.079Z,26.59
2023-07-15T13:52:20.888Z,26.49
2023-07-15T13:54:49.500Z,26.43
2023-07-15T13:57:16.324Z,26.37
2023-07-15T13:59:43.098Z,26.32
2023-07-15T14:02:14.306Z,26.22
2023-07-15T14:04:41.031Z,26.16
2023-07-15T14:07:10.594Z,26.06
2023-07-15T14:09:37.810Z,25.99
2023-07-15T14:12:05.099Z,25.96
2023-07-15T14:14:31.833Z,25.92
2023-07-15T14:16:58.615Z,25.93
2023-07-15T14:19:26.745Z,25.95
2023-07-15T14:22:05.574Z,25.93
2023-07-15T14:24:41.242Z,25.93
2023-07-15T14:27:08.143Z,25.92
2023-07-15T14:29:34.936Z,25.93
2023-07-15T14:32:04.160Z,25.91
2023-07-15T14:34:32.053Z,25.89
2023-07-15T14:36:58.682Z,25.82
2023-07-15T14:39:25.466Z,25.65
2023-07-15T14:41:52.164Z,25.48
2023-07-15T14:44:19.273Z,25.27
2023-07-15T14:46:46.212Z,25.19
2023-07-15T14:49:12.978Z,25.09
2023-07-15T14:51:39.740Z,24.96
2023-07-15T14:54:06.633Z,24.85
2023-07-15T14:56:33.371Z,24.76
2023-07-15T14:59:02.738Z,24.71
2023-07-15T15:01:31.244Z,24.64
2023-07-15T15:03:58.258Z,24.57
2023-07-15T15:06:25.195Z,24.59
2023-07-15T15:08:51.955Z,24.58
2023-07-15T15:11:18.761Z,24.61
2023-07-15T15:13:50.365Z,24.61
2023-07-15T15:16:17.140Z,24.58
2023-07-15T15:18:47.383Z,24.58
2023-07-15T15:21:15.248Z,24.57
2023-07-15T15:23:42.418Z,24.59
2023-07-15T15:26:09.257Z,24.68
2023-07-15T15:28:36.743Z,24.71
2023-07-15T15:31:03.573Z,24.73
2023-07-15T15:33:30.617Z,24.72
2023-07-15T15:35:57.481Z,24.71
2023-07-15T15:38:24.296Z,24.65
2023-07-15T15:40:50.960Z,24.71
2023-07-15T15:43:17.691Z,24.72
2023-07-15T15:45:44.468Z,24.72
2023-07-15T15:48:11.211Z,24.68
2023-07-15T15:50:37.930Z,24.64
2023-07-15T15:53:04.681Z,24.69
2023-07-15T15:55:31.448Z,24.68
2023-07-15T15:57:58.177Z,24.68
2023-07-15T16:00:25.936Z,24.72
2023-07-15T16:02:52.731Z,24.78
2023-07-15T16:05:19.672Z,24.82
2023-07-15T16:07:46.418Z,24.82
2023-07-15T16:10:14.364Z,24.79
2023-07-15T16:12:42.407Z,24.78
2023-07-15T16:15:09.597Z,24.82
2023-07-15T16:17:36.513Z,24.78
2023-07-15T16:20:06.515Z,24.73
2023-07-15T16:22:33.312Z,24.73
2023-07-15T16:24:59.991Z,24.67
2023-07-15T16:27:26.664Z,24.64
2023-07-15T16:29:53.441Z,24.62
2023-07-15T16:32:20.278Z,24.67
2023-07-15T16:34:47.033Z,24.64
2023-07-15T16:37:13.770Z,24.64
2023-07-15T16:39:40.470Z,24.65
2023-07-15T16:42:07.171Z,24.67
2023-07-15T16:44:33.971Z,24.59
2023-07-15T16:47:00.760Z,24.49
2023-07-15T16:49:27.482Z,24.48
2023-07-15T16:51:54.291Z,24.49
2023-07-15T16:54:20.998Z,24.48
2023-07-15T16:56:47.777Z,24.42
2023-07-15T16:59:14.857Z,24.38
2023-07-15T17:01:41.594Z,24.27
2023-07-15T17:04:08.472Z,24.28
2023-07-15T17:06:35.333Z,24.27
2023-07-15T17:09:02.077Z,24.24
2023-07-15T17:11:28.789Z,24.24
2023-07-15T17:13:55.551Z,24.25
2023-07-15T17:16:22.330Z,24.22
2023-07-15T17:18:49.036Z,24.22
2023-07-15T17:21:16.046Z,24.14
2023-07-15T17:23:42.970Z,24.10
2023-07-15T17:26:09.795Z,24.09
2023-07-15T17:28:36.562Z,24.07
2023-07-15T17:31:03.320Z,24.07
2023-07-15T17:33:30.128Z,24.04
2023-07-15T17:35:56.920Z,24.01
2023-07-15T17:38:23.627Z,23.96
2023-07-15T17:40:50.926Z,23.93
2023-07-15T17:43:17.876Z,23.86
2023-07-15T17:45:45.085Z,23.82
2023-07-15T17:48:11.918Z,23.72
2023-07-15T17:50:38.788Z,23.67
2023-07-15T17:53:05.600Z,23.61
2023-07-15T17:55:32.361Z,23.55
2023-07-15T17:57:59.106Z,23.48
2023-07-15T18:00:26.640Z,23.44
2023-07-15T18:02:53.508Z,23.35
2023-07-15T18:05:20.491Z,23.28
2023-07-15T18:07:47.292Z,23.25
2023-07-15T18:10:14.205Z,23.14
2023-07-15T18:12:41.004Z,23.07
2023-07-15T18:15:08.321Z,23.01
2023-07-15T18:17:35.077Z,22.98
2023-07-15T18:20:01.871Z,22.93
2023-07-15T18:22:28.662Z,22.91
2023-07-15T18:24:55.403Z,22.87
2023-07-15T18:27:22.242Z,22.84
2023-07-15T18:29:49.071Z,22.81
2023-07-15T18:32:15.980Z,22.74
2023-07-15T18:34:42.750Z,22.71
2023-07-15T18:37:09.570Z,22.61
2023-07-15T18:39:36.408Z,22.57
2023-07-15T18:42:03.577Z,22.55
2023-07-15T18:44:30.383Z,22.49
2023-07-15T18:46:57.152Z,22.40
2023-07-15T18:49:24.561Z,22.35
2023-07-15T18:51:54.164Z,22.33
2023-07-15T18:54:20.942Z,22.25
2023-07-15T18:56:47.846Z,22.22
2023-07-15T18:59:14.559Z,22.21
2023-07-15T19:01:42.010Z,22.18
2023-07-15T19:04:09.504Z,22.15
2023-07-15T19:06:36.291Z,22.09
2023-07-15T19:09:03.073Z,22.04
2023-07-15T19:11:29.775Z,22.02
2023-07-15T19:13:56.495Z,21.97
2023-07-15T19:16:23.213Z,21.92
2023-07-15T19:18:49.944Z,21.82
2023-07-15T19:21:16.863Z,21.78
2023-07-15T19:23:43.841Z,21.78
2023-07-15T19:26:10.654Z,21.77
2023-07-15T19:28:37.363Z,21.75
2023-07-15T19:31:04.164Z,21.75
2023-07-15T19:33:32.322Z,21.75
2023-07-15T19:35:59.065Z,21.71
2023-07-15T19:38:25.828Z,21.65
2023-07-15T19:40:52.519Z,21.65
2023-07-15T19:43:19.207Z,21.64
2023-07-15T19:45:45.922Z,21.64
2023-07-15T19:48:12.735Z,21.63
2023-07-15T19:50:39.447Z,21.67
2023-07-15T19:53:06.144Z,21.67
2023-07-15T19:55:32.979Z,21.63
2023-07-15T19:57:59.694Z,21.61
2023-07-15T20:00:26.518Z,21.55
2023-07-15T20:02:53.426Z,21.54
2023-07-15T20:05:20.185Z,21.54
2023-07-15T20:07:46.910Z,21.53
2023-07-15T20:10:13.672Z,21.53
2023-07-15T20:12:40.355Z,21.50
2023-07-15T20:15:07.485Z,21.46
2023-07-15T20:17:34.253Z,21.46
2023-07-15T20:20:01.026Z,21.40
2023-07-15T20:22:27.867Z,21.37
2023-07-15T20:24:55.008Z,21.33
2023-07-15T20:27:21.775Z,21.27
2023-07-15T20:29:48.436Z,21.22
2023-07-15T20:32:16.820Z,21.19
2023-07-15T20:34:43.673Z,21.13
2023-07-15T20:37:10.428Z,21.16
2023-07-15T20:39:37.199Z,21.15
2023-07-15T20:42:05.013Z,21.13
2023-07-15T20:44:31.596Z,21.09
2023-07-15T20:46:58.344Z,21.05
2023-07-15T20:49:25.161Z,21.02
2023-07-15T20:51:51.850Z,21.00
2023-07-15T20:54:18.583Z,20.96
2023-07-15T20:56:45.255Z,20.91
2023-07-15T20:59:11.991Z,20.88
2023-07-15T21:01:38.741Z,20.85
2023-07-15T21:04:05.614Z,20.82
2023-07-15T21:06:32.910Z,20.86
2023-07-15T21:08:59.714Z,20.88
2023-07-15T21:11:27.550Z,20.89
2023-07-15T21:13:54.261Z,20.85
2023-07-15T21:18:47.745Z,20.82
2023-07-15T21:21:14.422Z,20.79
2023-07-15T21:23:41.130Z,20.74
2023-07-15T21:26:08.004Z,20.74
2023-07-15T21:28:36.188Z,20.72
2023-07-15T21:31:03.433Z,20.74
2023-07-15T21:33:30.430Z,20.71
2023-07-15T21:35:57.106Z,20.68
2023-07-15T21:38:24.288Z,20.69
2023-07-15T21:40:51.036Z,20.69
2023-07-15T21:43:17.813Z,20.74
2023-07-15T21:45:44.676Z,20.71
2023-07-15T21:48:11.650Z,20.68
2023-07-15T21:50:38.357Z,20.69
2023-07-15T21:53:05.116Z,20.68
2023-07-15T21:55:31.816Z,20.68
2023-07-15T21:57:58.511Z,20.64
2023-07-15T22:00:25.487Z,20.63
2023-07-15T22:02:52.258Z,20.59
2023-07-15T22:05:19.100Z,20.59
2023-07-15T22:07:45.825Z,20.58
2023-07-15T22:10:12.524Z,20.57
2023-07-15T22:12:39.251Z,20.54
2023-07-15T22:15:06.539Z,20.48
2023-07-15T22:17:33.277Z,20.47
2023-07-15T22:19:59.981Z,20.44
2023-07-15T22:22:26.790Z,20.38
2023-07-15T22:24:53.506Z,20.38
2023-07-15T22:27:20.248Z,20.38
2023-07-15T22:29:46.949Z,20.38
2023-07-15T22:32:13.631Z,20.36
2023-07-15T22:34:40.326Z,20.33
2023-07-15T22:37:07.217Z,20.27
2023-07-15T22:39:33.929Z,20.24
2023-07-15T22:42:00.634Z,20.20
2023-07-15T22:44:27.360Z,20.17
2023-07-15T22:46:54.077Z,20.17
2023-07-15T22:49:20.897Z,20.13
2023-07-15T22:51:47.588Z,20.14
2023-07-15T22:54:14.868Z,20.10
2023-07-15T22:56:41.538Z,20.09
2023-07-15T22:59:08.259Z,20.12
2023-07-15T23:01:35.035Z,20.09
2023-07-15T23:04:01.881Z,20.08
2023-07-15T23:06:28.664Z,20.03
2023-07-15T23:08:55.401Z,20.02
2023-07-15T23:11:22.083Z,19.99
2023-07-15T23:13:48.838Z,19.92
2023-07-15T23:16:17.932Z,19.89
2023-07-15T23:18:46.628Z,19.90
2023-07-15T23:21:13.503Z,19.87
2023-07-15T23:23:40.295Z,19.87
2023-07-15T23:26:07.025Z,19.82
2023-07-15T23:28:33.755Z,19.79
2023-07-15T23:31:00.666Z,19.76
2023-07-15T23:33:27.562Z,19.79
2023-07-15T23:35:54.796Z,19.79
2023-07-15T23:38:21.657Z,19.79
2023-07-15T23:40:48.378Z,19.82
2023-07-15T23:43:15.169Z,19.81
2023-07-15T23:45:41.838Z,19.73
2023-07-15T23:48:08.794Z,19.68
2023-07-15T23:50:35.682Z,19.62
2023-07-15T23:53:02.405Z,19.59
2023-07-15T23:55:29.126Z,19.61
2023-07-15T23:57:55.895Z,19.57
